KLPC

Lompoc Airport

Lompoc, California, USA
METAR KLPC 131056Z AUTO 09008KT 10SM CLR 06/04 A3020 RMK AO2 SLP232 T00560044
Observed Flight Rules
Dec-13 @ 10:56 UTC (57 minutes ago) Visual Flight Rules
Wind Visibility Clouds
90° at 8 knots 10 miles
  • Clear skies
Temperatures Readings
Current 6°C / 43°F
Dewpoint 4°C / 39°F
Humidity 87%
Altimeter 30.2" Hg
Pressure 1023.2 hPa
Elevation 27
METAR KLPC 131056Z AUTO 09008KT 10SM CLR 06/04 A3020 RMK AO2 SLP232 T00560044
Observed Flight Rules
Dec-13 @ 10:56 UTC
(57 minutes ago)
VFR
Wind Visibility
90° at 8 knots 10 miles
Clouds
  • Clear skies
Temperature Dewpoint
6°C / 43°F 4°C / 39°F
Humidity Altimeter Pressure
87% 30.2" Hg 1023.2 hPa